createdAt,value
2018-08-20T00:02:00.873Z,20.90
2018-08-20T00:04:35.187Z,20.80
2018-08-20T00:07:03.855Z,20.80
2018-08-20T00:09:38.302Z,20.60
2018-08-20T00:12:08.154Z,20.60
2018-08-20T00:14:37.009Z,20.60
2018-08-20T00:17:05.810Z,20.50
2018-08-20T00:19:34.408Z,20.50
2018-08-20T00:22:03.338Z,20.50
2018-08-20T00:24:31.921Z,20.40
2018-08-20T00:27:02.354Z,20.40
2018-08-20T00:29:31.284Z,20.30
2018-08-20T00:32:00.175Z,20.30
2018-08-20T00:34:29.946Z,20.20
2018-08-20T00:36:58.849Z,20.20
2018-08-20T00:39:28.030Z,20.30
2018-08-20T00:41:57.290Z,20.30
2018-08-20T00:44:26.830Z,20.30
2018-08-20T00:46:55.641Z,20.30
2018-08-20T00:49:24.325Z,20.30
2018-08-20T00:51:53.659Z,20.20
2018-08-20T00:54:23.160Z,20.20
2018-08-20T00:56:51.664Z,20.20
2018-08-20T00:59:20.446Z,20.20
2018-08-20T01:01:49.248Z,20.20
2018-08-20T01:04:18.113Z,20.20
2018-08-20T01:06:46.539Z,20.10
2018-08-20T01:09:15.086Z,20.10
2018-08-20T01:11:44.336Z,20.10
2018-08-20T01:14:12.965Z,20.00
2018-08-20T01:16:42.456Z,20.00
2018-08-20T01:19:11.321Z,20.00
2018-08-20T01:21:40.101Z,19.80
2018-08-20T01:24:09.410Z,19.70
2018-08-20T01:26:37.867Z,19.70
2018-08-20T01:29:06.585Z,19.60
2018-08-20T01:31:35.324Z,19.60
2018-08-20T01:34:03.921Z,19.50
2018-08-20T01:36:32.653Z,19.60
2018-08-20T01:39:01.313Z,19.60
2018-08-20T01:41:30.388Z,19.50
2018-08-20T01:43:59.313Z,19.50
2018-08-20T01:46:27.765Z,19.50
2018-08-20T01:48:56.425Z,19.50
2018-08-20T01:51:25.088Z,19.50
2018-08-20T01:53:53.649Z,19.40
2018-08-20T01:56:22.617Z,19.40
2018-08-20T01:58:52.105Z,19.30
2018-08-20T02:01:20.596Z,19.20
2018-08-20T02:03:49.423Z,19.10
2018-08-20T02:06:18.027Z,19.10
2018-08-20T02:08:46.614Z,19.10
2018-08-20T02:11:15.477Z,19.10
2018-08-20T02:13:44.249Z,19.10
2018-08-20T02:16:12.860Z,19.10
2018-08-20T02:18:41.721Z,19.10
2018-08-20T02:21:10.412Z,19.10
2018-08-20T02:23:39.220Z,19.10
2018-08-20T02:26:08.133Z,19.00
2018-08-20T02:28:36.902Z,19.00
2018-08-20T02:31:06.657Z,19.00
2018-08-20T02:33:35.490Z,19.00
2018-08-20T02:36:04.319Z,18.90
2018-08-20T02:38:33.083Z,18.80
2018-08-20T02:41:02.277Z,18.80
2018-08-20T02:43:31.016Z,18.80
2018-08-20T02:45:59.539Z,18.80
2018-08-20T02:48:28.234Z,18.60
2018-08-20T02:50:57.016Z,18.40
2018-08-20T02:53:25.624Z,18.50
2018-08-20T02:55:54.236Z,18.50
2018-08-20T02:58:22.739Z,18.60
2018-08-20T03:00:51.748Z,18.70
2018-08-20T03:03:20.293Z,18.70
2018-08-20T03:05:48.862Z,18.70
2018-08-20T03:08:17.446Z,18.70
2018-08-20T03:10:46.773Z,18.70
2018-08-20T03:13:15.357Z,18.60
2018-08-20T03:15:44.709Z,18.50
2018-08-20T03:18:13.281Z,18.50
2018-08-20T03:20:41.830Z,18.50
2018-08-20T03:23:10.564Z,18.50
2018-08-20T03:25:39.076Z,18.60
2018-08-20T03:28:08.852Z,18.50
2018-08-20T03:30:37.773Z,18.50
2018-08-20T03:33:06.411Z,18.50
2018-08-20T03:35:35.135Z,18.40
2018-08-20T03:38:03.858Z,18.20
2018-08-20T03:40:33.233Z,18.00
2018-08-20T03:43:02.147Z,17.90
2018-08-20T03:45:30.901Z,17.90
2018-08-20T03:48:00.207Z,18.00
2018-08-20T03:50:28.902Z,18.00
2018-08-20T03:52:57.448Z,18.10
2018-08-20T03:55:26.040Z,18.00
2018-08-20T03:57:54.570Z,17.90
2018-08-20T04:00:24.517Z,17.80
2018-08-20T04:02:53.477Z,17.80
2018-08-20T04:05:22.036Z,17.70
2018-08-20T04:07:50.640Z,17.70
2018-08-20T04:10:20.117Z,17.70
2018-08-20T04:12:48.614Z,17.70
2018-08-20T04:15:17.219Z,17.70
2018-08-20T04:17:45.833Z,17.60
2018-08-20T04:20:14.481Z,17.50
2018-08-20T04:22:42.889Z,17.40
2018-08-20T04:25:11.512Z,17.40
2018-08-20T04:27:39.953Z,17.50
2018-08-20T04:30:08.378Z,17.40
2018-08-20T04:32:36.800Z,17.50
2018-08-20T04:35:05.653Z,17.40
2018-08-20T04:37:34.373Z,17.30
2018-08-20T04:40:02.935Z,17.30
2018-08-20T04:42:32.761Z,17.30
2018-08-20T04:45:01.199Z,17.30
2018-08-20T04:47:29.738Z,17.20
2018-08-20T04:49:58.543Z,17.20
2018-08-20T04:52:26.898Z,17.20
2018-08-20T04:54:55.482Z,17.10
2018-08-20T04:57:23.914Z,17.20
2018-08-20T04:59:52.364Z,17.30
2018-08-20T05:02:21.468Z,17.40
2018-08-20T05:04:49.933Z,17.60
2018-08-20T05:07:18.581Z,17.60
2018-08-20T05:09:47.012Z,17.50
2018-08-20T05:12:16.024Z,17.40
2018-08-20T05:14:44.518Z,17.30
2018-08-20T05:17:13.508Z,17.30
2018-08-20T05:19:42.195Z,17.40
2018-08-20T05:22:10.968Z,17.50
2018-08-20T05:24:40.439Z,17.50
2018-08-20T05:27:08.995Z,17.60
2018-08-20T05:29:37.426Z,17.70
2018-08-20T05:32:06.167Z,17.80
2018-08-20T05:34:35.141Z,17.90
2018-08-20T05:37:03.866Z,18.10
2018-08-20T05:39:32.641Z,18.10
2018-08-20T05:42:01.505Z,18.10
2018-08-20T05:44:31.051Z,18.20
2018-08-20T05:46:59.745Z,18.30
2018-08-20T05:49:28.227Z,18.40
2018-08-20T05:51:57.197Z,18.60
2018-08-20T05:54:25.846Z,18.70
2018-08-20T05:56:55.168Z,18.80
2018-08-20T05:59:23.991Z,19.00
2018-08-20T06:01:52.810Z,19.10
2018-08-20T06:04:21.349Z,19.20
2018-08-20T06:06:51.901Z,19.40
2018-08-20T06:09:20.491Z,19.50
2018-08-20T06:11:49.331Z,19.70
2018-08-20T06:14:18.980Z,19.70
2018-08-20T06:16:47.574Z,19.90
2018-08-20T06:19:16.185Z,20.00
2018-08-20T06:21:45.155Z,20.10
2018-08-20T06:24:13.902Z,20.10
2018-08-20T06:26:42.525Z,20.30
2018-08-20T06:29:11.028Z,20.40
2018-08-20T06:31:39.758Z,20.50
2018-08-20T06:34:09.052Z,20.60
2018-08-20T06:36:37.625Z,20.80
2018-08-20T06:39:07.925Z,20.90
2018-08-20T06:41:36.578Z,21.10
2018-08-20T06:44:05.366Z,21.20
2018-08-20T06:46:33.936Z,21.20
2018-08-20T06:49:02.470Z,21.30
2018-08-20T06:51:31.228Z,21.50
2018-08-20T06:53:59.812Z,21.60
2018-08-20T06:56:28.671Z,21.80
2018-08-20T06:58:57.249Z,21.90
2018-08-20T07:01:25.773Z,22.00
2018-08-20T07:03:54.325Z,22.20
2018-08-20T07:06:23.037Z,22.30
2018-08-20T07:08:51.526Z,22.40
2018-08-20T07:11:20.625Z,22.60
2018-08-20T07:13:49.568Z,22.70
2018-08-20T07:19:18.348Z,22.90
2018-08-20T07:21:47.161Z,23.00
2018-08-20T07:24:15.959Z,23.00
2018-08-20T07:26:44.790Z,23.20
2018-08-20T07:29:15.294Z,23.20
2018-08-20T07:31:44.303Z,23.40
2018-08-20T07:34:12.783Z,23.50
2018-08-20T07:36:42.126Z,23.60
2018-08-20T07:39:10.840Z,23.60
2018-08-20T07:41:39.454Z,23.80
2018-08-20T07:44:08.038Z,23.90
2018-08-20T07:46:36.686Z,24.20
2018-08-20T07:49:10.252Z,24.60
2018-08-20T07:51:38.979Z,24.80
2018-08-20T07:54:07.580Z,24.90
2018-08-20T07:56:36.376Z,25.10
2018-08-20T07:59:05.034Z,25.40
2018-08-20T08:01:33.530Z,25.60
2018-08-20T08:04:02.525Z,25.60
2018-08-20T08:06:31.814Z,26.00
2018-08-20T08:09:00.557Z,26.20
2018-08-20T08:11:29.202Z,26.40
2018-08-20T08:13:57.839Z,26.70
2018-08-20T08:16:26.398Z,27.10
2018-08-20T08:18:55.179Z,26.80
2018-08-20T08:21:23.809Z,26.80
2018-08-20T08:23:52.508Z,26.50
2018-08-20T08:26:21.300Z,26.70
2018-08-20T08:28:50.222Z,26.90
2018-08-20T08:31:19.007Z,27.30
2018-08-20T08:33:47.908Z,28.00
2018-08-20T08:36:17.002Z,28.30
2018-08-20T08:38:45.563Z,28.20
2018-08-20T08:41:14.165Z,28.00
2018-08-20T08:43:43.002Z,27.90
2018-08-20T08:46:11.610Z,28.20
2018-08-20T08:48:47.005Z,28.50
2018-08-20T08:51:15.796Z,28.80
2018-08-20T08:53:44.396Z,28.90
2018-08-20T08:56:13.014Z,28.50
2018-08-20T08:58:41.945Z,28.70
2018-08-20T09:01:10.650Z,28.40
2018-08-20T09:03:39.263Z,28.40
2018-08-20T09:06:08.157Z,27.50
2018-08-20T09:08:36.763Z,27.90
2018-08-20T09:11:05.885Z,28.20
2018-08-20T09:13:34.835Z,28.50
2018-08-20T09:16:04.372Z,28.40
2018-08-20T09:18:39.445Z,28.10
2018-08-20T09:21:07.945Z,28.30
2018-08-20T09:23:36.642Z,28.20
2018-08-20T09:26:05.120Z,28.10
2018-08-20T09:28:34.023Z,28.60
2018-08-20T09:31:03.153Z,29.10
2018-08-20T09:33:32.909Z,29.30
2018-08-20T09:36:01.396Z,29.30
2018-08-20T09:38:30.325Z,29.70
2018-08-20T09:40:59.566Z,29.30
2018-08-20T09:43:28.041Z,28.80
2018-08-20T09:45:57.106Z,28.80
2018-08-20T09:48:25.603Z,29.20
2018-08-20T09:50:54.500Z,29.40
2018-08-20T09:53:23.246Z,29.50
2018-08-20T09:55:51.681Z,29.00
2018-08-20T09:58:20.196Z,29.30
2018-08-20T10:00:48.813Z,29.40
2018-08-20T10:03:17.452Z,29.90
2018-08-20T10:05:46.119Z,30.20
2018-08-20T10:08:14.593Z,30.50
2018-08-20T10:10:43.958Z,30.60
2018-08-20T10:13:12.546Z,30.30
2018-08-20T10:15:42.291Z,29.80
2018-08-20T10:18:10.931Z,29.40
2018-08-20T10:20:39.516Z,29.50
2018-08-20T10:23:08.706Z,29.30
2018-08-20T10:25:37.272Z,29.50
2018-08-20T10:28:06.117Z,29.20
2018-08-20T10:30:35.312Z,28.90
2018-08-20T10:33:03.964Z,29.60
2018-08-20T10:35:32.574Z,29.40
2018-08-20T10:38:01.230Z,28.90
2018-08-20T10:40:30.607Z,29.50
2018-08-20T10:42:59.133Z,29.80
2018-08-20T10:45:32.971Z,30.00
2018-08-20T10:48:01.762Z,30.10
2018-08-20T10:50:30.360Z,30.50
2018-08-20T10:52:59.366Z,29.80
2018-08-20T10:55:27.933Z,29.30
2018-08-20T10:57:56.527Z,29.60
2018-08-20T11:00:25.129Z,29.70
2018-08-20T11:02:53.623Z,30.10
2018-08-20T11:05:22.073Z,30.50
2018-08-20T11:07:51.233Z,30.60
2018-08-20T11:10:20.130Z,30.30
2018-08-20T11:12:48.749Z,30.20
2018-08-20T11:15:17.469Z,30.50
2018-08-20T11:17:45.900Z,30.90
2018-08-20T11:20:15.425Z,31.20
2018-08-20T11:22:44.237Z,31.20
2018-08-20T11:25:13.732Z,31.70
2018-08-20T11:27:42.436Z,31.70
2018-08-20T11:30:12.487Z,31.60
2018-08-20T11:32:41.047Z,31.50
2018-08-20T11:35:10.634Z,30.70
2018-08-20T11:37:39.422Z,30.60
2018-08-20T11:40:09.016Z,30.30
2018-08-20T11:42:37.596Z,30.00
2018-08-20T11:45:09.162Z,29.80
2018-08-20T11:47:37.925Z,30.00
2018-08-20T11:50:06.738Z,29.90
2018-08-20T11:52:35.530Z,29.90
2018-08-20T11:55:04.772Z,30.30
2018-08-20T11:57:33.885Z,30.00
2018-08-20T12:00:02.594Z,30.10
2018-08-20T12:02:31.934Z,30.50
2018-08-20T12:05:00.531Z,31.00
2018-08-20T12:07:29.246Z,31.30
2018-08-20T12:09:57.750Z,31.10
2018-08-20T12:12:26.860Z,30.50
2018-08-20T12:14:55.451Z,30.90
2018-08-20T12:17:24.098Z,30.90
2018-08-20T12:19:52.768Z,31.20
2018-08-20T12:22:21.508Z,31.50
2018-08-20T12:24:49.990Z,31.50
2018-08-20T12:27:18.639Z,31.50
2018-08-20T12:29:47.389Z,31.40
2018-08-20T12:32:16.042Z,31.20
2018-08-20T12:34:44.910Z,31.00
2018-08-20T12:37:13.343Z,31.30
2018-08-20T12:39:41.990Z,31.30
2018-08-20T12:42:11.325Z,31.20
2018-08-20T12:44:39.772Z,31.10
2018-08-20T12:47:09.090Z,30.90
2018-08-20T12:49:37.897Z,31.10
2018-08-20T12:52:07.630Z,31.70
2018-08-20T12:54:36.164Z,31.90
2018-08-20T12:57:04.641Z,31.70
2018-08-20T12:59:33.288Z,31.50
2018-08-20T13:02:01.808Z,31.10
2018-08-20T13:04:30.307Z,30.90
2018-08-20T13:06:58.877Z,30.50
2018-08-20T13:09:28.229Z,30.20
2018-08-20T13:11:56.937Z,30.50
2018-08-20T13:14:25.680Z,30.70
2018-08-20T13:16:54.564Z,30.70
2018-08-20T13:19:23.013Z,30.80
2018-08-20T13:21:52.334Z,30.50
2018-08-20T13:24:21.082Z,30.50
2018-08-20T13:26:49.895Z,30.80
2018-08-20T13:29:18.633Z,31.00
2018-08-20T13:31:47.300Z,30.80
2018-08-20T13:34:16.261Z,31.00
2018-08-20T13:36:44.722Z,30.80
2018-08-20T13:39:13.390Z,30.40
2018-08-20T13:41:41.930Z,30.20
2018-08-20T13:44:10.957Z,30.10
2018-08-20T13:46:39.486Z,30.20
2018-08-20T13:49:08.745Z,30.10
2018-08-20T13:51:37.442Z,30.00
2018-08-20T13:54:06.129Z,29.90
2018-08-20T13:56:34.648Z,29.90
2018-08-20T13:59:03.301Z,29.90
2018-08-20T14:01:32.038Z,30.00
2018-08-20T14:04:00.531Z,29.70
2018-08-20T14:06:29.188Z,29.70
2018-08-20T14:08:57.897Z,30.00
2018-08-20T14:11:26.513Z,30.30
2018-08-20T14:13:55.157Z,30.40
2018-08-20T14:16:23.608Z,30.70
2018-08-20T14:18:52.377Z,30.60
2018-08-20T14:21:21.044Z,30.60
2018-08-20T14:23:50.165Z,30.70
2018-08-20T14:26:19.014Z,30.60
2018-08-20T14:28:48.289Z,30.40
2018-08-20T14:31:17.181Z,30.50
2018-08-20T14:33:45.887Z,30.30
2018-08-20T14:36:14.316Z,30.20
2018-08-20T14:38:43.117Z,29.70
2018-08-20T14:41:11.764Z,29.50
2018-08-20T14:43:40.349Z,29.70
2018-08-20T14:46:14.368Z,29.60
2018-08-20T14:48:43.609Z,29.60
2018-08-20T14:51:12.176Z,29.50
2018-08-20T14:53:40.795Z,29.60
2018-08-20T14:56:09.406Z,29.60
2018-08-20T14:58:38.444Z,29.40
2018-08-20T15:01:07.670Z,29.60
2018-08-20T15:03:36.227Z,29.50
2018-08-20T15:06:04.930Z,29.30
2018-08-20T15:08:35.837Z,29.30
2018-08-20T15:11:04.724Z,29.20
2018-08-20T15:13:33.511Z,29.20
2018-08-20T15:16:02.396Z,29.20
2018-08-20T15:18:31.296Z,29.00
2018-08-20T15:21:00.232Z,29.00
2018-08-20T15:23:28.729Z,29.20
2018-08-20T15:25:57.252Z,29.40
2018-08-20T15:28:25.933Z,29.30
2018-08-20T15:30:54.663Z,29.40
2018-08-20T15:33:23.933Z,29.40
2018-08-20T15:35:52.733Z,29.20
2018-08-20T15:38:21.498Z,29.20
2018-08-20T15:40:49.978Z,29.20
2018-08-20T15:43:18.529Z,29.30
2018-08-20T15:45:47.216Z,29.50
2018-08-20T15:48:15.922Z,29.30
2018-08-20T15:50:44.590Z,29.50
2018-08-20T15:53:13.064Z,29.40
2018-08-20T15:55:42.326Z,29.40
2018-08-20T15:58:11.345Z,29.40
2018-08-20T16:00:39.918Z,29.10
2018-08-20T16:03:08.851Z,28.80
2018-08-20T16:05:38.169Z,28.80
2018-08-20T16:08:06.865Z,28.50
2018-08-20T16:10:35.353Z,28.50
2018-08-20T16:13:04.227Z,28.40
2018-08-20T16:15:32.641Z,28.30
2018-08-20T16:18:02.028Z,28.30
2018-08-20T16:20:30.800Z,28.30
2018-08-20T16:22:59.249Z,28.20
2018-08-20T16:25:27.735Z,28.20
2018-08-20T16:27:56.896Z,28.20
2018-08-20T16:30:25.696Z,28.30
2018-08-20T16:32:54.236Z,28.10
2018-08-20T16:35:23.775Z,28.00
2018-08-20T16:37:52.426Z,28.00
2018-08-20T16:40:21.034Z,28.20
2018-08-20T16:42:49.779Z,28.20
2018-08-20T16:45:19.256Z,28.10
2018-08-20T16:47:48.016Z,28.00
2018-08-20T16:50:17.424Z,28.10
2018-08-20T16:52:46.038Z,28.00
2018-08-20T16:55:14.702Z,28.10
2018-08-20T16:57:43.144Z,28.00
2018-08-20T17:00:12.686Z,27.80
2018-08-20T17:02:42.852Z,27.70
2018-08-20T17:05:12.906Z,27.60
2018-08-20T17:07:41.673Z,27.50
2018-08-20T17:10:11.807Z,27.40
2018-08-20T17:12:41.049Z,27.30
2018-08-20T17:15:13.422Z,27.20
2018-08-20T17:17:42.168Z,27.20
2018-08-20T17:20:12.481Z,27.20
2018-08-20T17:22:42.322Z,27.20
2018-08-20T17:25:11.043Z,27.20
2018-08-20T17:27:39.726Z,27.10
2018-08-20T17:30:09.389Z,27.10
2018-08-20T17:32:37.929Z,27.00
2018-08-20T17:35:08.177Z,27.00
2018-08-20T17:37:36.873Z,26.90
2018-08-20T17:40:09.100Z,26.80
2018-08-20T17:42:37.725Z,26.90
2018-08-20T17:45:08.458Z,26.90
2018-08-20T17:47:39.822Z,26.80
2018-08-20T17:50:49.082Z,26.80
2018-08-20T17:53:18.193Z,26.80
2018-08-20T17:55:47.586Z,26.60
2018-08-20T17:58:16.186Z,26.60
2018-08-20T18:00:50.041Z,26.60
2018-08-20T18:03:24.239Z,26.50
2018-08-20T18:05:55.090Z,26.50
2018-08-20T18:08:25.013Z,26.50
2018-08-20T18:10:53.754Z,26.50
2018-08-20T18:13:34.584Z,26.40
2018-08-20T18:16:05.189Z,26.40
2018-08-20T18:18:34.509Z,26.30
2018-08-20T18:21:03.262Z,26.30
2018-08-20T18:23:33.130Z,26.20
2018-08-20T18:26:01.707Z,26.10
2018-08-20T18:28:42.090Z,26.10
2018-08-20T18:31:12.994Z,26.10
2018-08-20T18:33:43.234Z,26.00
2018-08-20T18:36:15.780Z,26.00
2018-08-20T18:39:00.765Z,25.90
2018-08-20T18:42:14.442Z,26.00
2018-08-20T18:44:43.686Z,25.90
2018-08-20T18:47:14.508Z,25.80
2018-08-20T18:49:49.476Z,25.70
2018-08-20T18:52:18.225Z,25.70
2018-08-20T18:54:50.896Z,25.60
2018-08-20T18:57:21.932Z,25.60
2018-08-20T18:59:50.534Z,25.60
2018-08-20T19:02:36.957Z,25.50
2018-08-20T19:05:08.714Z,25.50
2018-08-20T19:07:37.464Z,25.40
2018-08-20T19:10:09.597Z,25.30
2018-08-20T19:12:38.941Z,25.20
2018-08-20T19:15:23.249Z,24.90
2018-08-20T19:17:52.257Z,24.90
2018-08-20T19:20:21.116Z,24.80
2018-08-20T19:22:49.772Z,24.80
2018-08-20T19:25:18.542Z,24.70
2018-08-20T19:27:47.261Z,24.70
2018-08-20T19:30:21.113Z,24.60
2018-08-20T19:32:49.739Z,24.50
2018-08-20T19:35:18.628Z,24.40
2018-08-20T19:37:47.544Z,24.50
2018-08-20T19:40:16.152Z,24.50
2018-08-20T19:42:44.882Z,24.40
2018-08-20T19:45:14.089Z,24.40
2018-08-20T19:47:42.841Z,24.40
2018-08-20T19:50:12.824Z,24.40
2018-08-20T19:52:41.237Z,24.30
2018-08-20T19:55:11.709Z,24.30
2018-08-20T19:57:40.633Z,24.20
2018-08-20T20:00:11.972Z,24.10
2018-08-20T20:02:42.977Z,24.00
2018-08-20T20:05:14.954Z,23.90
2018-08-20T20:07:56.786Z,23.90
2018-08-20T20:10:25.448Z,23.90
2018-08-20T20:12:55.020Z,23.80
2018-08-20T20:15:25.180Z,23.80
2018-08-20T20:17:54.977Z,23.80
2018-08-20T20:20:24.360Z,23.70
2018-08-20T20:22:52.954Z,23.70
2018-08-20T20:25:21.768Z,23.60
2018-08-20T20:27:50.323Z,23.50
2018-08-20T20:30:18.997Z,23.50
2018-08-20T20:32:48.217Z,23.50
2018-08-20T20:35:16.934Z,23.40
2018-08-20T20:37:45.586Z,23.30
2018-08-20T20:40:14.423Z,23.20
2018-08-20T20:42:43.019Z,23.00
2018-08-20T20:45:11.665Z,22.90
2018-08-20T20:47:40.697Z,22.90
2018-08-20T20:50:09.445Z,22.90
2018-08-20T20:52:37.991Z,22.90
2018-08-20T20:55:06.549Z,22.90
2018-08-20T20:57:35.189Z,22.90
2018-08-20T21:00:04.232Z,22.90
2018-08-20T21:02:33.377Z,22.90
2018-08-20T21:05:06.486Z,22.90
2018-08-20T21:07:35.187Z,23.00
2018-08-20T21:10:04.441Z,23.00
2018-08-20T21:12:33.416Z,23.00
2018-08-20T21:15:02.314Z,23.00
2018-08-20T21:17:35.036Z,22.90
2018-08-20T21:20:04.357Z,22.80
2018-08-20T21:22:36.542Z,22.70
2018-08-20T21:25:06.578Z,22.50
2018-08-20T21:27:35.446Z,22.30
2018-08-20T21:30:04.893Z,22.30
2018-08-20T21:32:34.628Z,22.30
2018-08-20T21:35:03.211Z,22.30
2018-08-20T21:37:31.989Z,22.30
2018-08-20T21:40:01.354Z,22.30
2018-08-20T21:42:35.240Z,22.30
2018-08-20T21:45:03.693Z,22.30
2018-08-20T21:47:32.335Z,22.30
2018-08-20T21:50:01.552Z,22.40
2018-08-20T21:52:29.961Z,22.40
2018-08-20T21:54:58.858Z,22.40
2018-08-20T21:57:27.450Z,22.40
2018-08-20T22:00:08.624Z,22.40
2018-08-20T22:02:38.432Z,22.30
2018-08-20T22:05:07.793Z,22.30
2018-08-20T22:07:36.974Z,22.30
2018-08-20T22:10:12.240Z,22.20
2018-08-20T22:12:40.881Z,22.10
2018-08-20T22:15:09.850Z,21.80
2018-08-20T22:17:41.818Z,21.60
2018-08-20T22:20:10.506Z,21.60
2018-08-20T22:22:39.488Z,21.60
2018-08-20T22:25:11.474Z,21.70
2018-08-20T22:27:45.383Z,21.70
2018-08-20T22:30:15.336Z,21.70
2018-08-20T22:32:44.442Z,21.70
2018-08-20T22:35:18.261Z,21.60
2018-08-20T22:37:49.866Z,21.70
2018-08-20T22:40:20.069Z,21.70
2018-08-20T22:42:56.998Z,21.70
2018-08-20T22:45:25.878Z,21.40
2018-08-20T22:47:55.405Z,21.50
2018-08-20T22:50:24.041Z,21.50
2018-08-20T22:52:52.753Z,21.60
2018-08-20T22:55:22.427Z,21.60
2018-08-20T22:58:06.047Z,21.50
2018-08-20T23:00:35.612Z,21.50
2018-08-20T23:03:04.197Z,21.40
2018-08-20T23:05:33.419Z,21.40
2018-08-20T23:08:08.674Z,21.40
2018-08-20T23:10:42.078Z,21.40
2018-08-20T23:13:10.492Z,21.40
2018-08-20T23:15:39.205Z,21.40
2018-08-20T23:18:07.810Z,21.40
2018-08-20T23:20:37.091Z,21.40
2018-08-20T23:23:06.173Z,21.40
2018-08-20T23:25:34.636Z,21.50
2018-08-20T23:28:02.988Z,21.40
2018-08-20T23:30:31.978Z,21.40
2018-08-20T23:33:00.428Z,21.30
2018-08-20T23:35:29.103Z,21.10
2018-08-20T23:37:58.466Z,21.00
2018-08-20T23:40:27.025Z,21.00
2018-08-20T23:42:56.368Z,21.10
2018-08-20T23:45:25.251Z,21.10
2018-08-20T23:47:54.021Z,21.20
2018-08-20T23:50:22.833Z,21.20
2018-08-20T23:52:51.486Z,21.20
2018-08-20T23:55:20.101Z,21.30
2018-08-20T23:57:48.544Z,21.30
